Monticello, Maine
Current Conditions -  °F | °C
As of 12:16 PM on Saturday 25 Oct 2014 (Local Time) from KHUL Reporting Station
Overcast Overcast  
Wind Chill: 45°   Ceiling: 1500
Heat Index: 45°   Visibility: 10mi
Dew Point: 40°   Wind: 3mph
Humidity: 82%   Direction: 330°NNW
Pressure: 29.59"   Gusts: NA
Location:  46.31°N, 67.84°W
Report Text: KHUL 251616Z AUTO 33003KT 10SM OVC015 07/04 A2959 RMK AO2 T00720044
Loading
Personal Weather Stations






























Interactive Weather Map
Tropical Storm Tracking
New forecast layout! Learn more

10-Day Weather Forecast

Advertisements
Track Severe Weather on mobile